createdAt,value
2022-10-14T00:00:34.661Z,6.62
2022-10-14T00:03:01.062Z,6.60
2022-10-14T00:05:27.533Z,6.59
2022-10-14T00:07:53.938Z,6.51
2022-10-14T00:10:20.313Z,6.46
2022-10-14T00:12:47.372Z,6.48
2022-10-14T00:15:13.931Z,6.51
2022-10-14T00:17:40.282Z,6.55
2022-10-14T00:20:07.192Z,6.66
2022-10-14T00:22:33.580Z,6.76
2022-10-14T00:24:59.957Z,6.82
2022-10-14T00:27:26.374Z,6.90
2022-10-14T00:29:52.884Z,7.00
2022-10-14T00:32:19.259Z,7.14
2022-10-14T00:34:45.635Z,7.24
2022-10-14T00:37:11.996Z,7.30
2022-10-14T00:39:38.670Z,7.33
2022-10-14T00:42:05.177Z,7.38
2022-10-14T00:44:31.486Z,7.44
2022-10-14T00:46:58.035Z,7.45
2022-10-14T00:49:40.751Z,7.48
2022-10-14T00:52:21.035Z,7.47
2022-10-14T00:54:55.546Z,7.47
2022-10-14T00:57:23.751Z,7.41
2022-10-14T00:59:51.295Z,7.39
2022-10-14T01:02:17.639Z,7.31
2022-10-14T01:04:44.514Z,7.26
2022-10-14T01:07:31.571Z,7.28
2022-10-14T01:10:00.661Z,7.24
2022-10-14T01:12:45.346Z,7.22
2022-10-14T01:15:31.548Z,7.18
2022-10-14T01:18:38.709Z,7.20
2022-10-14T01:21:12.398Z,7.18
2022-10-14T01:24:08.235Z,7.18
2022-10-14T01:26:54.553Z,7.19
2022-10-14T01:29:51.740Z,7.20
2022-10-14T01:32:28.381Z,7.18
2022-10-14T01:35:03.961Z,7.17
2022-10-14T01:37:33.489Z,7.14
2022-10-14T01:40:05.729Z,7.10
2022-10-14T01:42:37.094Z,7.05
2022-10-14T01:45:13.506Z,6.97
2022-10-14T01:47:41.722Z,6.94
2022-10-14T01:50:21.052Z,6.89
2022-10-14T01:52:53.231Z,6.86
2022-10-14T01:55:25.037Z,6.86
2022-10-14T01:57:54.104Z,6.87
2022-10-14T02:00:20.632Z,6.87
2022-10-14T02:02:47.099Z,6.86
2022-10-14T02:05:32.052Z,6.88
2022-10-14T02:08:04.327Z,6.86
2022-10-14T02:10:40.256Z,6.86
2022-10-14T02:13:29.230Z,6.86
2022-10-14T02:16:38.214Z,6.89
2022-10-14T02:19:20.060Z,6.96
2022-10-14T02:21:51.903Z,7.03
2022-10-14T02:24:22.852Z,7.07
2022-10-14T02:26:52.498Z,7.15
2022-10-14T02:29:20.194Z,7.17
2022-10-14T02:31:48.428Z,7.20
2022-10-14T02:34:19.730Z,7.20
2022-10-14T02:36:46.408Z,7.19
2022-10-14T02:39:18.405Z,7.19
2022-10-14T02:41:45.113Z,7.19
2022-10-14T02:44:11.482Z,7.23
2022-10-14T02:46:41.092Z,7.28
2022-10-14T02:49:07.520Z,7.31
2022-10-14T02:51:33.859Z,7.35
2022-10-14T02:54:01.481Z,7.36
2022-10-14T02:56:28.045Z,7.37
2022-10-14T02:58:54.374Z,7.42
2022-10-14T03:01:20.769Z,7.37
2022-10-14T03:03:47.127Z,7.35
2022-10-14T03:06:13.661Z,7.24
2022-10-14T03:08:40.079Z,7.22
2022-10-14T03:11:06.501Z,7.21
2022-10-14T03:13:32.853Z,7.19
2022-10-14T03:15:59.275Z,7.15
2022-10-14T03:18:25.741Z,7.16
2022-10-14T03:20:52.200Z,7.21
2022-10-14T03:23:18.562Z,7.21
2022-10-14T03:25:45.245Z,7.16
2022-10-14T03:28:13.018Z,7.13
2022-10-14T03:30:39.749Z,7.09
2022-10-14T03:33:06.470Z,7.07
2022-10-14T03:35:32.990Z,7.09
2022-10-14T03:38:02.297Z,7.14
2022-10-14T03:40:29.347Z,7.19
2022-10-14T03:42:59.566Z,7.26
2022-10-14T03:45:25.987Z,7.38
2022-10-14T03:47:52.331Z,7.54
2022-10-14T03:50:18.748Z,7.57
2022-10-14T03:52:47.083Z,7.60
2022-10-14T03:55:14.355Z,7.60
2022-10-14T03:57:40.731Z,7.61
2022-10-14T04:00:07.854Z,7.65
2022-10-14T04:02:34.221Z,7.68
2022-10-14T04:05:01.174Z,7.70
2022-10-14T04:07:27.743Z,7.72
2022-10-14T04:09:54.225Z,7.74
2022-10-14T04:12:20.795Z,7.76
2022-10-14T04:14:47.382Z,7.76
2022-10-14T04:17:14.637Z,7.78
2022-10-14T04:19:41.122Z,7.80
2022-10-14T04:22:08.152Z,7.80
2022-10-14T04:24:34.496Z,7.76
2022-10-14T04:27:00.872Z,7.71
2022-10-14T04:29:27.288Z,7.64
2022-10-14T04:31:53.681Z,7.57
2022-10-14T04:34:20.639Z,7.54
2022-10-14T04:36:47.014Z,7.48
2022-10-14T04:39:15.350Z,7.45
2022-10-14T04:41:42.337Z,7.41
2022-10-14T04:44:08.798Z,7.38
2022-10-14T04:46:35.202Z,7.36
2022-10-14T04:49:01.618Z,7.36
2022-10-14T04:51:27.971Z,7.41
2022-10-14T04:53:54.342Z,7.45
2022-10-14T04:56:20.706Z,7.48
2022-10-14T04:58:47.490Z,7.50
2022-10-14T05:01:13.867Z,7.53
2022-10-14T05:03:40.251Z,7.59
2022-10-14T05:06:06.647Z,7.61
2022-10-14T05:08:33.043Z,7.65
2022-10-14T05:11:00.057Z,7.63
2022-10-14T05:13:26.633Z,7.65
2022-10-14T05:15:53.080Z,7.67
2022-10-14T05:18:19.471Z,7.69
2022-10-14T05:20:46.069Z,7.73
2022-10-14T05:23:12.821Z,7.74
2022-10-14T05:25:39.220Z,7.77
2022-10-14T05:28:05.636Z,7.78
2022-10-14T05:30:34.700Z,7.84
2022-10-14T05:33:01.507Z,7.95
2022-10-14T05:35:53.737Z,8.09
2022-10-14T05:38:14.431Z,8.23
2022-10-14T05:40:40.820Z,8.39
2022-10-14T05:43:07.187Z,8.49
2022-10-14T05:45:33.541Z,8.54
2022-10-14T05:47:59.881Z,8.57
2022-10-14T05:50:26.238Z,8.60
2022-10-14T05:52:52.571Z,8.63
2022-10-14T05:55:19.016Z,8.68
2022-10-14T05:57:45.407Z,8.73
2022-10-14T06:00:13.976Z,8.80
2022-10-14T06:02:40.583Z,8.85
2022-10-14T06:05:07.269Z,8.91
2022-10-14T06:07:36.199Z,9.02
2022-10-14T06:10:03.094Z,9.08
2022-10-14T06:12:29.492Z,9.13
2022-10-14T06:14:55.904Z,9.14
2022-10-14T06:17:22.244Z,9.20
2022-10-14T06:19:48.617Z,9.25
2022-10-14T06:22:16.035Z,9.28
2022-10-14T06:24:42.427Z,9.32
2022-10-14T06:27:08.781Z,9.38
2022-10-14T06:29:37.999Z,9.42
2022-10-14T06:32:09.424Z,9.47
2022-10-14T06:34:35.965Z,9.49
2022-10-14T06:37:02.703Z,9.59
2022-10-14T06:39:29.133Z,9.65
2022-10-14T06:41:55.491Z,9.72
2022-10-14T06:44:21.876Z,9.77
2022-10-14T06:46:48.305Z,9.82
2022-10-14T06:49:14.850Z,9.86
2022-10-14T06:51:41.338Z,9.93
2022-10-14T06:54:08.065Z,9.98
2022-10-14T06:56:34.625Z,10.01
2022-10-14T06:59:01.125Z,10.04
2022-10-14T07:01:27.615Z,10.08
2022-10-14T07:03:56.575Z,10.10
2022-10-14T07:06:23.626Z,10.13
2022-10-14T07:08:50.093Z,10.16
2022-10-14T07:11:16.570Z,10.19
2022-10-14T07:13:42.970Z,10.24
2022-10-14T07:16:09.331Z,10.26
2022-10-14T07:18:35.681Z,10.28
2022-10-14T07:21:05.637Z,10.32
2022-10-14T07:23:32.494Z,10.32
2022-10-14T07:26:00.336Z,10.33
2022-10-14T07:28:26.813Z,10.37
2022-10-14T07:31:01.107Z,10.39
2022-10-14T07:33:27.989Z,10.40
2022-10-14T07:35:55.257Z,10.47
2022-10-14T07:38:21.946Z,10.46
2022-10-14T07:41:02.932Z,10.48
2022-10-14T07:43:29.949Z,10.54
2022-10-14T07:46:00.792Z,10.58
2022-10-14T07:48:32.959Z,10.62
2022-10-14T07:51:11.314Z,10.61
2022-10-14T07:53:37.705Z,10.63
2022-10-14T07:56:04.300Z,10.65
2022-10-14T07:58:31.425Z,10.65
2022-10-14T08:00:58.563Z,10.65
2022-10-14T08:03:25.389Z,10.69
2022-10-14T08:05:58.739Z,10.76
2022-10-14T08:08:25.138Z,10.88
2022-10-14T08:11:04.011Z,10.91
2022-10-14T08:13:30.939Z,10.93
2022-10-14T08:15:57.360Z,10.95
2022-10-14T08:18:24.138Z,10.99
2022-10-14T08:20:50.497Z,11.09
2022-10-14T08:23:19.083Z,11.11
2022-10-14T08:25:50.596Z,11.22
2022-10-14T08:28:17.085Z,11.25
2022-10-14T08:30:43.509Z,11.25
2022-10-14T08:33:09.840Z,11.32
2022-10-14T08:35:36.209Z,11.38
2022-10-14T08:38:02.671Z,11.44
2022-10-14T08:40:30.724Z,11.35
2022-10-14T08:43:21.731Z,11.26
2022-10-14T08:45:54.908Z,11.28
2022-10-14T08:48:25.803Z,11.23
2022-10-14T08:51:07.943Z,11.34
2022-10-14T08:53:41.306Z,11.40
2022-10-14T08:56:08.031Z,11.49
2022-10-14T08:58:38.697Z,11.57
2022-10-14T09:01:29.718Z,11.62
2022-10-14T09:04:02.903Z,11.57
2022-10-14T09:06:33.129Z,11.55
2022-10-14T09:09:09.226Z,11.52
2022-10-14T09:11:41.074Z,11.58
2022-10-14T09:14:12.829Z,11.62
2022-10-14T09:16:40.255Z,11.65
2022-10-14T09:19:15.011Z,11.65
2022-10-14T09:21:53.500Z,11.68
2022-10-14T09:24:29.009Z,11.67
2022-10-14T09:27:00.755Z,11.68
2022-10-14T09:29:30.682Z,11.76
2022-10-14T09:32:03.933Z,11.77
2022-10-14T09:34:34.876Z,11.80
2022-10-14T09:37:24.329Z,11.77
2022-10-14T09:39:53.226Z,11.80
2022-10-14T09:42:44.977Z,11.86
2022-10-14T09:45:15.344Z,11.94
2022-10-14T09:47:53.947Z,11.97
2022-10-14T09:50:33.409Z,12.05
2022-10-14T09:53:10.921Z,12.12
2022-10-14T09:55:46.544Z,12.15
2022-10-14T09:58:17.594Z,12.16
2022-10-14T10:00:46.041Z,12.20
2022-10-14T10:03:33.442Z,12.25
2022-10-14T10:06:03.727Z,12.37
2022-10-14T10:08:30.930Z,12.43
2022-10-14T10:11:06.874Z,12.44
2022-10-14T10:13:45.405Z,12.63
2022-10-14T10:16:21.493Z,12.67
2022-10-14T10:18:49.454Z,12.71
2022-10-14T10:21:24.688Z,12.74
2022-10-14T10:24:03.046Z,12.80
2022-10-14T10:26:34.294Z,12.77
2022-10-14T10:29:04.415Z,12.70
2022-10-14T10:31:51.706Z,12.72
2022-10-14T10:34:43.644Z,12.79
2022-10-14T10:37:29.928Z,12.71
2022-10-14T10:40:18.490Z,12.72
2022-10-14T10:43:11.418Z,12.80
2022-10-14T10:45:46.926Z,12.89
2022-10-14T10:48:28.091Z,13.08
2022-10-14T10:51:09.618Z,13.09
2022-10-14T10:53:51.266Z,13.06
2022-10-14T10:56:38.797Z,12.98
2022-10-14T10:59:15.703Z,12.96
2022-10-14T11:01:53.485Z,12.98
2022-10-14T11:04:33.554Z,13.01
2022-10-14T11:07:26.961Z,13.04
2022-10-14T11:10:30.337Z,13.05
2022-10-14T11:13:07.624Z,13.07
2022-10-14T11:15:46.945Z,13.18
2022-10-14T11:18:58.593Z,13.33
2022-10-14T11:21:36.511Z,13.48
2022-10-14T11:24:13.392Z,13.36
2022-10-14T11:27:24.009Z,13.42
2022-10-14T11:30:08.968Z,13.43
2022-10-14T11:33:01.458Z,13.40
2022-10-14T11:35:37.819Z,13.32
2022-10-14T11:38:24.658Z,13.30
2022-10-14T11:41:01.897Z,13.30
2022-10-14T11:43:41.349Z,13.36
2022-10-14T11:46:12.050Z,13.34
2022-10-14T11:49:16.368Z,13.34
2022-10-14T11:51:49.678Z,13.41
2022-10-14T11:54:25.313Z,13.49
2022-10-14T11:57:02.421Z,13.50
2022-10-14T11:59:42.603Z,13.62
2022-10-14T12:02:14.137Z,13.79
2022-10-14T12:04:44.975Z,13.99
2022-10-14T12:07:24.178Z,14.10
2022-10-14T12:10:13.122Z,14.26
2022-10-14T12:12:41.449Z,14.53
2022-10-14T12:15:16.108Z,14.55
2022-10-14T12:18:01.329Z,14.76
2022-10-14T12:20:44.544Z,14.81
2022-10-14T12:23:17.128Z,14.72
2022-10-14T12:25:55.326Z,14.65
2022-10-14T12:28:22.440Z,14.67
2022-10-14T12:30:48.937Z,14.66
2022-10-14T12:33:22.559Z,14.77
2022-10-14T12:36:01.367Z,15.33
2022-10-14T12:38:30.494Z,15.47
2022-10-14T12:41:33.146Z,15.33
2022-10-14T12:44:04.691Z,15.28
2022-10-14T12:46:31.454Z,15.34
2022-10-14T12:48:57.910Z,15.61
2022-10-14T12:51:24.630Z,15.77
2022-10-14T12:54:07.425Z,16.00
2022-10-14T12:56:54.716Z,16.33
2022-10-14T12:59:29.282Z,15.96
2022-10-14T13:01:58.516Z,15.82
2022-10-14T13:04:26.092Z,15.76
2022-10-14T13:07:45.486Z,16.21
2022-10-14T13:10:59.249Z,16.21
2022-10-14T13:13:38.153Z,16.91
2022-10-14T13:16:05.737Z,19.52
2022-10-14T13:18:38.230Z,17.54
2022-10-14T13:21:07.667Z,16.10
2022-10-14T13:23:42.411Z,15.59
2022-10-14T13:26:46.737Z,15.61
2022-10-14T13:29:51.508Z,16.18
2022-10-14T13:32:58.883Z,16.21
2022-10-14T13:35:57.169Z,16.97
2022-10-14T13:38:24.306Z,16.26
2022-10-14T13:40:53.423Z,15.77
2022-10-14T13:43:21.557Z,15.45
2022-10-14T13:45:51.326Z,15.23
2022-10-14T13:48:23.508Z,15.06
2022-10-14T13:51:02.309Z,14.95
2022-10-14T13:53:52.950Z,14.80
2022-10-14T13:56:31.547Z,14.82
2022-10-14T13:58:58.805Z,14.74
2022-10-14T14:01:32.418Z,14.77
2022-10-14T14:03:59.709Z,14.69
2022-10-14T14:06:32.489Z,14.80
2022-10-14T14:09:07.882Z,14.91
2022-10-14T14:11:37.788Z,14.94
2022-10-14T14:14:08.905Z,14.86
2022-10-14T14:16:39.209Z,14.87
2022-10-14T14:19:09.299Z,14.87
2022-10-14T14:21:36.940Z,14.71
2022-10-14T14:24:13.836Z,14.65
2022-10-14T14:26:40.255Z,14.62
2022-10-14T14:29:14.945Z,14.62
2022-10-14T14:34:30.244Z,14.54
2022-10-14T14:37:10.749Z,14.55
2022-10-14T14:40:01.955Z,14.49
2022-10-14T14:42:35.813Z,14.42
2022-10-14T14:45:20.506Z,14.40
2022-10-14T14:47:48.979Z,14.29
2022-10-14T14:50:33.728Z,14.21
2022-10-14T14:53:06.825Z,14.14
2022-10-14T14:55:42.024Z,14.15
2022-10-14T14:58:26.361Z,14.17
2022-10-14T15:00:54.833Z,14.13
2022-10-14T15:03:25.083Z,14.04
2022-10-14T15:05:55.990Z,13.96
2022-10-14T15:08:25.273Z,13.90
2022-10-14T15:10:54.898Z,13.95
2022-10-14T15:13:53.266Z,13.87
2022-10-14T15:16:34.081Z,13.85
2022-10-14T15:19:19.229Z,13.83
2022-10-14T15:22:06.015Z,13.83
2022-10-14T15:24:32.421Z,13.65
2022-10-14T15:26:59.717Z,13.57
2022-10-14T15:29:26.137Z,13.60
2022-10-14T15:32:01.554Z,13.58
2022-10-14T15:34:28.366Z,13.53
2022-10-14T15:36:55.032Z,13.49
2022-10-14T15:39:22.420Z,13.46
2022-10-14T15:41:48.837Z,13.46
2022-10-14T15:44:15.318Z,13.29
2022-10-14T15:47:02.807Z,13.34
2022-10-14T15:49:33.367Z,13.31
2022-10-14T15:51:59.806Z,13.19
2022-10-14T15:54:27.569Z,13.12
2022-10-14T15:59:27.611Z,13.08
2022-10-14T16:01:54.208Z,13.00
2022-10-14T16:04:24.590Z,13.02
2022-10-14T16:06:55.141Z,12.89
2022-10-14T16:09:27.506Z,12.86
2022-10-14T16:11:57.339Z,12.83
2022-10-14T16:14:25.068Z,12.76
2022-10-14T16:16:51.406Z,12.72
2022-10-14T16:19:18.704Z,12.75
2022-10-14T16:21:45.059Z,12.73
2022-10-14T16:24:18.483Z,12.68
2022-10-14T16:26:45.004Z,12.63
2022-10-14T16:29:11.360Z,12.59
2022-10-14T16:31:38.045Z,12.55
2022-10-14T16:34:04.406Z,12.58
2022-10-14T16:36:30.935Z,12.55
2022-10-14T16:38:57.388Z,12.58
2022-10-14T16:41:24.350Z,12.60
2022-10-14T16:43:50.761Z,12.54
2022-10-14T16:46:17.318Z,12.54
2022-10-14T16:48:43.674Z,12.44
2022-10-14T16:51:10.172Z,12.35
2022-10-14T16:53:46.703Z,12.33
2022-10-14T16:56:34.979Z,12.35
2022-10-14T16:59:02.065Z,12.29
2022-10-14T17:01:29.565Z,12.31
2022-10-14T17:03:56.993Z,12.33
2022-10-14T17:06:24.500Z,12.28
2022-10-14T17:08:51.261Z,12.28
2022-10-14T17:11:18.321Z,12.26
2022-10-14T17:13:44.816Z,12.30
2022-10-14T17:16:11.565Z,12.28
2022-10-14T17:18:38.078Z,12.26
2022-10-14T17:21:10.673Z,12.25
2022-10-14T17:23:39.102Z,12.26
2022-10-14T17:26:05.976Z,12.26
2022-10-14T17:28:33.394Z,12.21
2022-10-14T17:31:01.391Z,12.18
2022-10-14T17:33:28.063Z,12.14
2022-10-14T17:36:01.045Z,12.14
2022-10-14T17:38:29.553Z,12.16
2022-10-14T17:41:03.706Z,12.23
2022-10-14T17:43:30.102Z,12.23
2022-10-14T17:48:42.210Z,12.14
2022-10-14T17:51:12.852Z,12.05
2022-10-14T17:53:39.782Z,12.05
2022-10-14T17:56:12.155Z,12.02
2022-10-14T17:58:39.505Z,11.99
2022-10-14T18:01:08.159Z,11.98
2022-10-14T18:03:36.373Z,11.97
2022-10-14T18:06:18.152Z,11.99
2022-10-14T18:08:48.692Z,12.01
2022-10-14T18:11:16.450Z,12.00
2022-10-14T18:13:43.226Z,11.99
2022-10-14T18:16:12.378Z,11.96
2022-10-14T18:18:40.376Z,11.90
2022-10-14T18:21:07.654Z,11.88
2022-10-14T18:23:39.410Z,11.85
2022-10-14T18:26:13.443Z,11.90
2022-10-14T18:28:43.759Z,11.92
2022-10-14T18:31:12.174Z,11.90
2022-10-14T18:33:40.578Z,11.94
2022-10-14T18:36:08.938Z,11.96
2022-10-14T18:38:35.773Z,11.96
2022-10-14T18:41:05.452Z,11.98
2022-10-14T18:43:32.551Z,12.01
2022-10-14T18:46:09.334Z,12.03
2022-10-14T18:48:38.910Z,11.99
2022-10-14T18:51:05.965Z,11.97
2022-10-14T18:53:33.777Z,11.93
2022-10-14T18:56:08.649Z,11.90
2022-10-14T18:58:38.383Z,11.85
2022-10-14T19:01:08.957Z,11.86
2022-10-14T19:03:35.489Z,11.86
2022-10-14T19:06:02.136Z,11.89
2022-10-14T19:08:28.616Z,11.90
2022-10-14T19:11:05.961Z,11.93
2022-10-14T19:13:32.668Z,11.94
2022-10-14T19:16:04.016Z,11.95
2022-10-14T19:18:30.569Z,12.00
2022-10-14T19:21:09.316Z,12.03
2022-10-14T19:23:37.127Z,12.02
2022-10-14T19:26:08.299Z,11.99
2022-10-14T19:28:34.819Z,11.99
2022-10-14T19:31:08.954Z,11.98
2022-10-14T19:33:37.610Z,11.98
2022-10-14T19:36:07.070Z,12.08
2022-10-14T19:38:34.845Z,12.10
2022-10-14T19:41:02.625Z,12.11
2022-10-14T19:43:29.210Z,12.19
2022-10-14T19:45:55.914Z,12.24
2022-10-14T19:48:22.459Z,12.41
2022-10-14T19:50:48.822Z,12.51
2022-10-14T19:53:15.226Z,12.60
2022-10-14T19:55:41.701Z,12.62
2022-10-14T19:58:08.189Z,12.76
2022-10-14T20:00:35.757Z,12.80
2022-10-14T20:03:02.656Z,12.83
2022-10-14T20:05:30.842Z,12.89
2022-10-14T20:07:57.921Z,12.90
2022-10-14T20:10:24.612Z,12.91
2022-10-14T20:12:51.023Z,12.87
2022-10-14T20:15:17.498Z,12.94
2022-10-14T20:17:44.064Z,12.93
2022-10-14T20:20:11.008Z,12.95
2022-10-14T20:22:37.474Z,12.94
2022-10-14T20:25:04.276Z,12.94
2022-10-14T20:27:30.676Z,12.93
2022-10-14T20:29:57.063Z,12.93
2022-10-14T20:32:23.438Z,12.91
2022-10-14T20:34:49.842Z,12.92
2022-10-14T20:37:16.188Z,12.94
2022-10-14T20:39:42.558Z,13.06
2022-10-14T20:42:09.017Z,13.06
2022-10-14T20:44:35.408Z,13.03
2022-10-14T20:47:01.773Z,13.07
2022-10-14T20:49:28.127Z,13.11
2022-10-14T20:51:54.454Z,13.14
2022-10-14T20:54:20.901Z,13.11
2022-10-14T20:56:49.041Z,13.08
2022-10-14T20:59:15.473Z,13.12
2022-10-14T21:01:41.907Z,13.22
2022-10-14T21:04:08.355Z,13.17
2022-10-14T21:06:35.531Z,13.15
2022-10-14T21:09:03.674Z,13.13
2022-10-14T21:11:30.442Z,13.16
2022-10-14T21:13:59.228Z,13.20
2022-10-14T21:16:29.702Z,13.20
2022-10-14T21:19:04.682Z,13.23
2022-10-14T21:21:38.223Z,13.22
2022-10-14T21:24:05.210Z,13.23
2022-10-14T21:26:31.638Z,13.26
2022-10-14T21:29:00.230Z,13.25
2022-10-14T21:31:26.707Z,13.27
2022-10-14T21:34:05.419Z,13.30
2022-10-14T21:36:33.323Z,13.24
2022-10-14T21:39:01.359Z,13.24
2022-10-14T21:41:28.134Z,13.25
2022-10-14T21:43:56.571Z,13.24
2022-10-14T21:46:23.782Z,13.26
2022-10-14T21:48:55.580Z,13.23
2022-10-14T21:51:22.168Z,13.23
2022-10-14T21:53:48.555Z,13.22
2022-10-14T21:56:15.752Z,13.22
2022-10-14T21:58:42.899Z,13.23
2022-10-14T22:01:15.116Z,13.23
2022-10-14T22:03:42.253Z,13.26
2022-10-14T22:06:11.548Z,13.31
2022-10-14T22:08:40.201Z,13.30
2022-10-14T22:11:07.949Z,13.29
2022-10-14T22:13:35.377Z,13.26
2022-10-14T22:16:01.766Z,13.22
2022-10-14T22:18:28.442Z,13.28
2022-10-14T22:21:06.279Z,13.24
2022-10-14T22:23:33.284Z,13.18
2022-10-14T22:26:04.502Z,13.16
2022-10-14T22:28:31.618Z,13.23
2022-10-14T22:31:09.656Z,13.26
2022-10-14T22:33:37.826Z,13.25
2022-10-14T22:36:07.138Z,13.24
2022-10-14T22:38:34.280Z,13.19
2022-10-14T22:41:02.085Z,13.21
2022-10-14T22:43:28.564Z,13.25
2022-10-14T22:45:59.858Z,13.23
2022-10-14T22:48:26.215Z,13.20
2022-10-14T22:50:52.598Z,13.18
2022-10-14T22:53:18.946Z,13.08
2022-10-14T22:55:51.374Z,13.06
2022-10-14T22:58:17.762Z,13.04
2022-10-14T23:00:44.129Z,13.01
2022-10-14T23:03:10.664Z,13.00
2022-10-14T23:05:37.165Z,13.02
2022-10-14T23:08:04.378Z,13.03
2022-10-14T23:10:30.840Z,13.02
2022-10-14T23:12:57.396Z,13.03
2022-10-14T23:15:23.779Z,13.04
2022-10-14T23:17:50.163Z,13.01
2022-10-14T23:20:16.565Z,12.97
2022-10-14T23:22:42.965Z,12.95
2022-10-14T23:25:09.356Z,12.96
2022-10-14T23:27:36.433Z,12.89
2022-10-14T23:30:03.400Z,12.89
2022-10-14T23:32:29.757Z,12.88
2022-10-14T23:34:56.110Z,12.87
2022-10-14T23:37:22.645Z,12.85
2022-10-14T23:39:49.253Z,12.81
2022-10-14T23:42:15.697Z,12.74
2022-10-14T23:44:42.277Z,12.71
2022-10-14T23:47:08.721Z,12.70
2022-10-14T23:49:35.102Z,12.64
2022-10-14T23:52:01.474Z,12.60
2022-10-14T23:54:27.904Z,12.54
2022-10-14T23:56:54.287Z,12.44
2022-10-14T23:59:20.901Z,12.48
